ADDS METAR Data INFO
IDs: Format: Raw Decoded Include TAF

Data at: 0749 UTC 17 Oct 2017

KBHM 170653Z 05003KT 10SM CLR 11/06 A3025 RMK AO2 SLP240 T01110061
KBHM 170553Z 00000KT 10SM CLR 11/07 A3025 RMK AO2 SLP241 T01110072 10139 20111 402110111 58002
KBHM 170453Z 00000KT 10SM CLR 12/07 A3026 RMK AO2 SLP243 T01170067
KBHM 170353Z 02006KT 10SM CLR 13/07 A3026 RMK AO2 SLP243 T01280067
KBHM 170253Z 01007KT 10SM FEW250 13/07 A3026 RMK AO2 SLP243 T01330072 51016
KBHM 170153Z 36007KT 10SM FEW250 12/08 A3025 RMK AO2 SLP241 T01170078
KBHM 170053Z 36006KT 10SM FEW250 12/08 A3023 RMK AO2 SLP236 T01220083
KBHM 162353Z 35005KT 10SM SCT250 14/08 A3021 RMK AO2 SLP228 T01390078 10211 20139 53012
KBHM 162253Z 36009KT 10SM SCT250 17/07 A3019 RMK AO2 SLP219 T01720072
KBHM 162153Z 36013G18KT 10SM FEW250 20/06 A3017 RMK AO2 SLP213 T02000061
KBHM 162053Z 02013G20KT 10SM FEW250 21/07 A3017 RMK AO2 SLP214 T02060067 56016
KBHM 161953Z 36014G20KT 10SM FEW250 21/07 A3018 RMK AO2 SLP215 T02060072
KBHM 161853Z 35013KT 10SM FEW250 20/07 A3019 RMK AO2 SLP219 T02000072
KBHM 161753Z 01014G21KT 10SM FEW250 19/08 A3022 RMK AO2 SLP229 T01890078 10189 20111 58012
KBHM 161653Z 02013KT 10SM FEW250 17/08 A3025 RMK AO2 SLP238 T01720078
KBHM 161553Z 02010KT 10SM SCT250 15/07 A3026 RMK AO2 SLP240 T01500072
KBHM 161453Z 03014G19KT 10SM FEW021 BKN250 13/07 A3026 RMK AO2 SLP241 T01330072 51017
KBHM 161426Z 03013KT 10SM SCT020 BKN250 13/08 A3025 RMK AO2 T01330078
KBHM 161353Z 01016G21KT 10SM BKN018 BKN250 12/07 A3025 RMK AO2 SLP238 T01170072
KBHM 161253Z 36010KT 10SM BKN016 BKN250 11/08 A3023 RMK AO2 SLP232 T01110083
KBHM 161210Z 36007G16KT 10SM OVC015 11/09 A3021 RMK AO2 T01110089
KBHM 161153Z 36011KT 10SM OVC014 11/09 A3021 RMK AO2 SLP224 60025 70033 T01110094 10172 20111 53018
KBHM 161053Z 35008KT 10SM OVC011 12/10 A3019 RMK AO2 SLP218 T01170100
KBHM 160953Z 01012KT 10SM OVC011 12/11 A3016 RMK AO2 SLP208 T01220111
KBHM 160853Z 35009KT 10SM OVC008 13/12 A3015 RMK AO2 RAE06 CIG 008V012 SLP204 P0001 60025 T01280117 50000
KBHM 160803Z 35009KT 10SM -RA BKN008 BKN037 OVC075 14/13 A3015 RMK AO2 P0001 T01440133
KBHM 160753Z 01007KT 5SM RA BR SCT008 BKN035 OVC070 14/13 A3015 RMK AO2 SLP203 P0014 T01440133
KBHM 160746Z 02005KT 5SM RA BR FEW008 BKN040 OVC080 14/13 A3015 RMK AO2 P0012 T01440133
KBHM 160737Z 02011KT 6SM RA BR SCT010 SCT043 OVC070 14/13 A3015 RMK AO2 P0010 T01440133
KBHM 160727Z 01011KT 5SM +RA BR SCT010 BKN023 OVC060 14/13 A3015 RMK AO2 P0008 T01440133
KBHM 160653Z 34013KT 4SM RA BR BKN008 OVC013 16/15 A3015 RMK AO2 RAB23 SLP204 P0010 T01560150
KBHM 160650Z 34014KT 2 1/2SM +RA BR BKN009 OVC013 16/15 A3015 RMK AO2 RAB23 P0009
KBHM 160627Z 36008KT 10SM -RA OVC009 17/16 A3016 RMK AO2 RAB23 CIG 007V016 P0000 T01720156
KBHM 160610Z 35008KT 10SM BKN010 BKN031 OVC085 17/16 A3016 RMK AO2 T01720156
KBHM 160553Z 01010KT 10SM SCT010 BKN019 OVC085 17/16 A3015 RMK AO2 RAE40 SLP201 P0004 60008 T01720161 10261 20172 403000172 50000
KBHM 160551Z 01008KT 10SM FEW010 BKN030 OVC085 17/16 A3015 RMK AO2 RAE40 P0004
KBHM 160533Z 01014G20KT 9SM -RA SCT009 BKN018 OVC100 18/17 A3014 RMK AO2 P0004 T01780167
KBHM 160512Z 36009KT 10SM -RA BKN009 OVC019 19/18 A3014 RMK AO2 P0002 T01890178
KBHM 160453Z 35014KT 4SM RA BR SCT009 BKN021 OVC050 19/18 A3014 RMK AO2 LTG DSNT NE AND E RAB28 SLP200 P0004 T01890178
KBHM 160451Z 35013KT 4SM RA BR SCT011 BKN021 OVC050 19/18 A3014 RMK AO2 LTG DSNT NE AND E RAB28 P0004
KBHM 160433Z 35009KT 6SM RA BR FEW009 FEW013 OVC050 20/18 A3013 RMK AO2 LTG DSNT SE RAB28 P0000 T02000178
KBHM 160431Z 01009KT 8SM -RA SCT011 OVC050 20/18 A3013 RMK AO2 LTG DSNT SE RAB28 P0000 T02000178
KBHM 160353Z 34014G21KT 10SM OVC013 22/19 A3012 RMK AO2 LTG DSNT ALQDS SLP192 T02170189
KBHM 160325Z 34010KT 10SM BKN014 OVC032 22/19 A3011 RMK AO2 LTG DSNT SW T02220194
KBHM 160253Z 35005KT 10SM OVC027 23/19 A3010 RMK AO2 SLP186 T02280189 52014
KBHM 160240Z 36005KT 10SM BKN027 OVC034 23/19 A3010 RMK AO2 T02280189
KBHM 160153Z 35009KT 10SM FEW036 BKN100 BKN250 24/21 A3008 RMK AO2 SLP179 T02390206
KBHM 160053Z 00000KT 10SM FEW120 BKN250 24/21 A3008 RMK AO2 SLP178 T02440206
KBHM 152353Z 20003KT 10SM FEW035 BKN250 26/20 A3006 RMK AO2 SLP171 T02560200 10300 20256 53002
KBHM 152253Z 22004KT 10SM FEW039 SCT250 28/19 A3003 RMK AO2 SLP162 T02780194
KBHM 152153Z 23005KT 10SM FEW050 29/19 A3004 RMK AO2 SLP164 T02940194
KBHM 152053Z 21004KT 10SM FEW039 28/19 A3005 RMK AO2 SLP168 T02830189 56030
KBHM 151953Z 18005KT 10SM FEW037 SCT100 28/19 A3007 RMK AO2 SLP175 T02830194